Time;durP1;ratioP1;P1;durP2;ratioP2;P2;SDS_P1;SDS_P2;PMS_P1;PMS_P2;Temp;Humidity;BMP_temperature;BMP_pressure;BME280_temperature;BME280_humidity;BME280_pressure;Samples;Min_cycle;Max_cycle;Signal;HPM_P1;HPM_P2
2022/05/03 00:00:45;;;;;;;8.52;5.60;;;;;;;8.09;88.22;101789.81;6303540;22;20006;-77
2022/05/03 00:03:54;;;;;;;7.47;5.65;;;;;;;8.04;86.62;101773.53;6309197;22;20317;-77
2022/05/03 00:06:31;;;;;;;9.13;6.07;;;;;;;8.05;87.81;101784.00;6240751;23;20341;-77
2022/05/03 00:09:04;;;;;;;8.65;5.43;;;;;;;8.03;87.51;101791.34;6241283;23;20016;-77
2022/05/03 00:11:40;;;;;;;8.43;5.68;;;;;;;7.97;87.72;101786.72;6293383;22;20014;-77
2022/05/03 00:14:17;;;;;;;8.88;5.85;;;;;;;7.96;88.29;101786.91;6336736;22;20003;-77
2022/05/03 00:16:45;;;;;;;7.03;5.45;;;;;;;7.89;88.73;101781.44;6302456;22;20007;-77
2022/05/03 00:19:11;;;;;;;10.52;6.00;;;;;;;7.91;88.45;101786.59;6336625;22;20026;-77
2022/05/03 00:21:37;;;;;;;9.07;5.78;;;;;;;7.90;88.39;101779.59;6337121;22;20013;-77
2022/05/03 00:24:04;;;;;;;8.80;6.25;;;;;;;7.85;89.46;101776.63;6329702;22;20056;-77
2022/05/03 00:29:53;;;;;;;9.38;5.53;;;;;;;7.73;89.49;101777.00;6336804;22;20480;-77
2022/05/03 00:32:21;;;;;;;7.65;5.60;;;;;;;7.69;90.10;101777.50;6308931;22;20089;-77
2022/05/03 00:34:48;;;;;;;11.45;5.43;;;;;;;7.63;89.43;101771.06;6329720;22;20416;-77
2022/05/03 00:37:13;;;;;;;9.82;6.28;;;;;;;7.60;90.02;101770.56;6336497;22;20424;-77
2022/05/03 00:39:38;;;;;;;10.32;6.22;;;;;;;7.60;90.37;101763.41;6333991;22;20013;-77
2022/05/03 00:42:35;;;;;;;9.15;5.80;;;;;;;7.62;88.73;101771.22;6332496;22;20010;-77
2022/05/03 00:45:31;;;;;;;10.02;5.80;;;;;;;7.63;89.17;101771.06;6329296;22;20498;-77
2022/05/03 00:48:34;;;;;;;8.05;5.50;;;;;;;7.62;88.61;101768.56;6300287;22;20041;-77
2022/05/03 00:51:04;;;;;;;8.57;6.00;;;;;;;7.63;88.75;101768.38;6308880;22;20083;-77
2022/05/03 00:53:38;;;;;;;10.25;6.45;;;;;;;7.59;89.24;101774.22;6329688;22;20011;-77
2022/05/03 01:00:01;;;;;;;10.73;6.57;;;;;;;7.52;89.16;101768.78;6336746;22;20022;-77
2022/05/03 01:02:53;;;;;;;8.02;5.60;;;;;;;7.52;88.46;101776.75;6336580;22;20499;-77
2022/05/03 01:06:03;;;;;;;9.15;6.07;;;;;;;7.50;88.31;101775.25;6329720;22;20007;-77
2022/05/03 01:08:36;;;;;;;7.78;5.47;;;;;;;7.40;89.40;101770.94;6284979;22;20097;-77
2022/05/03 01:11:29;;;;;;;8.68;6.03;;;;;;;7.36;89.17;101779.44;6329612;22;20014;-77
2022/05/03 01:14:40;;;;;;;7.47;5.85;;;;;;;7.28;88.95;101777.63;6308588;22;20222;-77
2022/05/03 01:17:24;;;;;;;8.85;5.82;;;;;;;7.19;89.99;101760.00;6292433;22;20014;-77
2022/05/03 01:20:04;;;;;;;6.75;5.57;;;;;;;7.11;90.96;101762.69;6336472;22;20014;-77
2022/05/03 01:23:19;;;;;;;6.88;5.38;;;;;;;7.17;90.48;101766.50;6302222;22;20018;-77
2022/05/03 01:25:45;;;;;;;6.65;5.18;;;;;;;7.10;91.80;101767.19;6336932;22;20056;-77
2022/05/03 01:28:48;;;;;;;7.43;5.72;;;;;;;7.06;91.29;101770.34;6329569;22;20010;-77
2022/05/03 01:31:14;;;;;;;8.43;5.78;;;;;;;7.05;91.81;101766.03;6336450;22;20002;-77
2022/05/03 01:33:48;;;;;;;8.35;5.90;;;;;;;7.04;91.83;101775.84;6329322;22;20474;-77
2022/05/03 01:36:27;;;;;;;8.27;5.70;;;;;;;7.00;91.36;101755.06;6336361;22;20382;-77
2022/05/03 01:39:13;;;;;;;9.02;5.53;;;;;;;7.01;91.02;101764.72;6331915;22;20013;-77
2022/05/03 01:42:00;;;;;;;7.35;5.57;;;;;;;7.01;91.03;101765.53;6308485;22;20064;-77
2022/05/03 01:44:25;;;;;;;7.80;5.82;;;;;;;6.95;91.55;101763.56;6308312;22;20072;-77
2022/05/03 01:46:55;;;;;;;11.10;5.80;;;;;;;6.89;92.68;101766.88;6302203;22;20378;-77
2022/05/03 01:52:16;;;;;;;7.78;5.82;;;;;;;6.78;92.09;101764.56;6329315;22;20068;-77
2022/05/03 01:55:18;;;;;;;8.00;5.35;;;;;;;6.72;91.89;101758.06;6308388;22;20420;-77
2022/05/03 01:58:03;;;;;;;6.88;5.00;;;;;;;6.72;92.85;101762.56;6301838;22;20038;-77
2022/05/03 02:00:33;;;;;;;7.30;5.35;;;;;;;6.73;92.68;101761.56;6308420;22;20003;-77
2022/05/03 02:03:25;;;;;;;9.00;5.38;;;;;;;6.71;92.02;101763.56;6329190;22;20064;-77
2022/05/03 02:06:02;;;;;;;7.28;5.38;;;;;;;6.73;92.98;101770.38;6336042;22;20028;-77
2022/05/03 02:08:59;;;;;;;8.48;5.45;;;;;;;6.70;92.20;101756.59;6329079;22;20015;-77
2022/05/03 02:11:40;;;;;;;8.55;5.38;;;;;;;6.62;93.37;101757.38;6316962;22;20060;-77
2022/05/03 02:20:28;;;;;;;9.10;5.95;;;;;;;6.51;92.95;101752.41;6336032;22;20071;-77
2022/05/03 02:23:24;;;;;;;7.53;5.32;;;;;;;6.54;92.87;101762.72;6335904;22;20010;-77
2022/05/03 02:26:05;;;;;;;7.95;5.47;;;;;;;6.49;92.76;101759.72;6328814;22;20445;-77
2022/05/03 02:28:46;;;;;;;7.88;5.65;;;;;;;6.39;93.12;101740.47;6308134;22;20090;-77
2022/05/03 02:31:37;;;;;;;8.20;5.72;;;;;;;6.29;92.55;101740.59;6330589;22;20064;-77
2022/05/03 02:34:30;;;;;;;7.22;5.43;;;;;;;6.32;93.79;101756.19;6321200;22;20015;-77
2022/05/03 02:36:59;;;;;;;;;;;;;;;6.28;88.99;101765.50;6335256;22;20083;-77
2022/05/03 02:39:28;;;;;;;8.85;4.97;;;;;;;6.17;93.37;101753.38;6306083;22;19975;-77
2022/05/03 02:41:58;;;;;;;7.22;5.63;;;;;;;6.19;93.59;101753.19;6309851;22;20007;-77
2022/05/03 02:44:25;;;;;;;7.13;5.18;;;;;;;6.24;93.77;101755.38;6330423;22;20396;-77
2022/05/03 02:47:03;;;;;;;8.63;5.43;;;;;;;6.15;93.96;101759.84;6337710;22;20048;-77
2022/05/03 02:50:13;;;;;;;9.07;5.70;;;;;;;6.15;93.95;101760.66;6302941;22;20094;-77
2022/05/03 02:52:51;;;;;;;7.25;5.25;;;;;;;6.01;95.13;101757.78;6306219;22;20048;-77
2022/05/03 02:55:20;;;;;;;8.25;5.63;;;;;;;5.98;95.54;101761.59;6330256;22;20026;-77
2022/05/03 02:58:03;;;;;;;9.43;5.40;;;;;;;5.84;95.20;101740.97;6309359;22;20011;-77
2022/05/03 03:03:38;;;;;;;9.75;5.55;;;;;;;5.92;95.10;101764.06;6335884;22;20021;-77
2022/05/03 03:06:04;;;;;;;9.05;5.95;;;;;;;5.88;94.79;101752.91;6309392;22;20093;-77
2022/05/03 03:08:43;;;;;;;6.63;5.03;;;;;;;5.85;94.90;101761.19;6330259;22;20010;-77
2022/05/03 03:11:15;;;;;;;7.45;5.20;;;;;;;5.88;94.89;101753.75;6336997;22;20421;-77
2022/05/03 03:14:15;;;;;;;14.20;6.18;;;;;;;5.84;94.98;101748.94;6302837;22;20046;-77
2022/05/03 03:16:44;;;;;;;11.02;5.75;;;;;;;5.86;95.37;101757.56;6273882;22;20094;-77
2022/05/03 03:19:27;;;;;;;7.68;5.55;;;;;;;5.85;94.56;101748.75;6330125;22;20022;-77
2022/05/03 03:21:55;;;;;;;9.68;5.53;;;;;;;5.79;95.40;101745.94;6337089;22;20006;-77
2022/05/03 03:24:22;;;;;;;7.00;4.88;;;;;;;5.87;94.75;101760.03;6332249;22;20124;-77
2022/05/03 03:26:50;;;;;;;8.43;5.90;;;;;;;5.86;94.86;101745.13;6307579;22;20089;-77
2022/05/03 03:29:19;;;;;;;8.90;5.60;;;;;;;5.84;94.61;101749.75;6336996;22;20006;-77
2022/05/03 03:31:47;;;;;;;8.25;5.30;;;;;;;5.84;94.51;101762.19;6302697;22;20455;-77
2022/05/03 03:34:13;;;;;;;8.02;5.38;;;;;;;5.82;94.34;101750.91;6336767;22;20006;-77
2022/05/03 03:36:40;;;;;;;10.00;5.18;;;;;;;5.82;94.39;101758.88;6330199;22;20022;-77
2022/05/03 03:39:05;;;;;;;8.90;6.00;;;;;;;5.80;94.31;101758.19;6336841;22;20056;-77
2022/05/03 03:41:30;;;;;;;10.00;5.70;;;;;;;5.70;94.00;101750.34;6337032;22;20027;-77
2022/05/03 03:43:56;;;;;;;7.07;5.18;;;;;;;5.72;94.65;101751.03;6329815;22;20006;-77
2022/05/03 03:46:21;;;;;;;7.88;5.15;;;;;;;5.71;94.40;101752.00;6309164;22;20423;-77
2022/05/03 03:48:46;;;;;;;8.02;6.05;;;;;;;5.71;94.48;101751.19;6329713;22;20018;-77
2022/05/03 03:51:14;;;;;;;11.85;5.95;;;;;;;5.70;94.74;101753.00;6309177;22;20006;-77
2022/05/03 03:53:40;;;;;;;8.10;5.82;;;;;;;5.67;94.67;101744.53;6336713;22;20010;-77
2022/05/03 03:56:06;;;;;;;8.18;5.85;;;;;;;5.60;94.98;101750.47;6318555;22;20010;-77
2022/05/03 03:58:31;;;;;;;9.45;5.75;;;;;;;5.59;95.25;101748.81;6308906;22;20017;-77
2022/05/03 04:00:58;;;;;;;10.10;5.88;;;;;;;5.63;95.69;101744.03;6329809;22;20089;-77
2022/05/03 04:03:25;;;;;;;9.65;6.38;;;;;;;5.57;95.57;101744.66;6336653;22;20006;-77
2022/05/03 04:05:51;;;;;;;8.60;5.60;;;;;;;5.60;96.08;101753.13;6331736;22;20017;-77
2022/05/03 04:08:16;;;;;;;10.00;5.40;;;;;;;5.58;95.33;101738.38;6334981;22;20003;-77
2022/05/03 04:10:43;;;;;;;11.55;5.82;;;;;;;5.62;95.78;101745.00;6336716;22;20007;-77
2022/05/03 04:13:12;;;;;;;9.32;5.93;;;;;;;5.63;95.57;101743.19;6329850;22;20007;-77
2022/05/03 04:15:38;;;;;;;9.07;6.10;;;;;;;5.65;96.13;101749.16;6336786;22;20495;-76
2022/05/03 04:18:06;;;;;;;10.30;6.07;;;;;;;5.63;96.48;101751.16;6302175;22;20047;-77
2022/05/03 04:20:32;;;;;;;7.88;5.82;;;;;;;5.61;97.40;101764.56;6336702;22;20445;-77
2022/05/03 04:22:58;;;;;;;9.57;6.13;;;;;;;5.62;97.41;101750.31;6309016;22;20042;-77
2022/05/03 04:25:23;;;;;;;8.52;5.63;;;;;;;5.66;96.42;101754.31;6302424;22;20018;-77
2022/05/03 04:27:48;;;;;;;8.35;5.80;;;;;;;5.77;95.56;101759.31;6308902;22;20061;-77
2022/05/03 04:30:13;;;;;;;10.18;6.20;;;;;;;5.83;96.15;101748.09;6328443;22;20022;-77
2022/05/03 04:32:39;;;;;;;10.53;6.80;;;;;;;5.91;96.02;101747.31;6308686;22;20057;-77
2022/05/03 04:35:04;;;;;;;8.37;5.80;;;;;;;6.05;95.12;101757.28;6336610;22;20239;-77
2022/05/03 04:37:30;;;;;;;9.73;6.53;;;;;;;6.11;95.10;101745.22;6302389;22;20309;-77
2022/05/03 04:39:55;;;;;;;9.43;6.05;;;;;;;6.16;94.76;101746.38;6336878;22;20013;-77
2022/05/03 04:42:21;;;;;;;12.50;6.63;;;;;;;6.20;94.90;101746.88;6329554;22;20011;-76
2022/05/03 04:44:46;;;;;;;9.77;6.22;;;;;;;6.35;94.81;101755.03;6336567;22;20026;-77
2022/05/03 04:47:11;;;;;;;9.20;6.13;;;;;;;6.47;94.68;101748.44;6332523;22;19999;-76
2022/05/03 04:49:36;;;;;;;11.53;6.47;;;;;;;6.63;94.07;101759.06;6306260;22;20002;-77
2022/05/03 04:52:02;;;;;;;11.02;6.55;;;;;;;6.73;93.81;101772.19;6308601;22;20273;-77
2022/05/03 04:54:28;;;;;;;8.60;6.00;;;;;;;6.89;94.62;101763.38;6302291;22;20042;-77
2022/05/03 04:56:58;;;;;;;9.57;6.63;;;;;;;7.09;92.94;101767.34;6336378;22;19999;-77
2022/05/03 04:59:23;;;;;;;12.15;6.32;;;;;;;7.18;92.38;101773.47;6329103;22;20039;-77
2022/05/03 05:01:49;;;;;;;9.55;5.93;;;;;;;7.40;92.04;101778.94;6308659;22;20023;-77
2022/05/03 05:04:15;;;;;;;12.27;6.00;;;;;;;7.63;91.86;101780.88;6336615;22;20038;-77
2022/05/03 05:06:40;;;;;;;9.55;5.93;;;;;;;7.91;90.89;101770.63;6302449;22;20315;-77
2022/05/03 05:09:05;;;;;;;9.40;6.55;;;;;;;8.15;90.08;101772.31;6308693;22;20006;-77
2022/05/03 05:11:31;;;;;;;10.50;6.20;;;;;;;8.40;89.03;101781.88;6329491;22;20140;-77
2022/05/03 05:13:56;;;;;;;8.57;6.33;;;;;;;8.68;88.69;101777.66;6336250;22;20547;-77
2022/05/03 05:16:21;;;;;;;15.10;6.75;;;;;;;9.05;87.07;101780.53;6336418;22;20237;-77
2022/05/03 05:18:46;;;;;;;10.47;6.80;;;;;;;9.46;85.25;101780.94;6329647;22;20392;-77
2022/05/03 05:21:12;;;;;;;10.70;5.77;;;;;;;9.69;84.13;101778.19;6336215;22;20265;-77
2022/05/03 05:23:38;;;;;;;12.10;5.72;;;;;;;9.92;83.28;101776.22;6329449;22;20633;-77
2022/05/03 05:26:03;;;;;;;9.73;6.60;;;;;;;10.28;81.21;101784.28;6336329;22;20041;-77
2022/05/03 05:28:28;;;;;;;10.63;6.10;;;;;;;10.71;79.64;101792.34;6334286;22;20007;-77
2022/05/03 05:34:15;;;;;;;9.73;5.65;;;;;;;11.40;75.26;101793.31;6336440;22;20079;-77
2022/05/03 05:36:42;;;;;;;8.97;6.30;;;;;;;11.55;74.88;101797.72;6329777;22;20014;-77
2022/05/03 05:39:07;;;;;;;7.97;6.53;;;;;;;11.63;72.54;101801.09;6336196;22;20261;-77
2022/05/03 05:41:33;;;;;;;12.07;6.78;;;;;;;11.92;71.96;101804.56;6329205;22;20041;-77
2022/05/03 05:43:58;;;;;;;10.10;6.60;;;;;;;12.05;71.00;101802.75;6336199;22;20007;-77
2022/05/03 05:46:23;;;;;;;12.13;6.35;;;;;;;12.26;69.91;101806.34;6331656;22;20018;-77
2022/05/03 05:48:49;;;;;;;10.95;6.93;;;;;;;12.66;69.16;101804.59;6333539;22;20010;-78
2022/05/03 05:51:15;;;;;;;12.03;6.53;;;;;;;13.09;67.34;101802.38;6336118;22;20068;-77
2022/05/03 05:53:40;;;;;;;9.82;6.68;;;;;;;13.39;64.54;101797.41;6329137;22;20695;-77
2022/05/03 05:59:27;;;;;;;8.07;5.80;;;;;;;14.24;61.71;101808.94;6336052;22;20037;-77
2022/05/03 06:01:53;;;;;;;9.67;6.30;;;;;;;14.61;60.01;101812.69;6336040;22;20408;-77
2022/05/03 06:04:18;;;;;;;7.53;5.93;;;;;;;14.84;58.80;101807.56;6329294;22;20246;-78
2022/05/03 06:06:43;;;;;;;7.87;5.70;;;;;;;15.20;56.63;101800.63;6308232;22;20294;-77
2022/05/03 06:09:08;;;;;;;8.75;5.95;;;;;;;15.43;55.76;101802.72;6336023;22;20306;-77
2022/05/03 06:11:34;;;;;;;7.90;5.87;;;;;;;15.84;53.70;101802.09;6330246;22;20010;-77
2022/05/03 06:13:59;;;;;;;7.43;5.90;;;;;;;16.44;51.08;101807.53;6337213;22;20253;-77
2022/05/03 06:16:24;;;;;;;8.33;5.77;;;;;;;17.03;50.18;101800.44;6330250;22;20244;-77
2022/05/03 06:18:49;;;;;;;8.02;6.00;;;;;;;17.63;47.70;101821.84;6309412;22;20237;-78
2022/05/03 06:21:15;;;;;;;7.00;5.93;;;;;;;18.04;48.14;101812.75;6337231;22;19998;-77
2022/05/03 06:23:40;;;;;;;6.23;5.20;;;;;;;18.45;43.39;101808.13;6330568;22;20686;-78
2022/05/03 06:26:06;;;;;;;9.57;5.78;;;;;;;19.03;42.66;101818.66;6337256;22;20272;-77
2022/05/03 06:28:32;;;;;;;7.22;4.95;;;;;;;19.51;41.08;101814.50;6330404;22;20332;-78
2022/05/03 06:30:57;;;;;;;8.95;5.45;;;;;;;19.75;39.31;101807.00;6337295;22;20037;-77
2022/05/03 06:33:23;;;;;;;8.83;5.40;;;;;;;20.10;37.85;101818.31;6335910;22;20011;-78
2022/05/03 06:35:48;;;;;;;6.72;4.65;;;;;;;20.44;37.42;101811.91;6331626;22;20744;-77
2022/05/03 06:38:13;;;;;;;6.78;4.95;;;;;;;20.88;36.49;101818.88;6337140;22;20014;-78
2022/05/03 06:40:39;;;;;;;7.50;5.20;;;;;;;21.64;34.61;101813.97;6330300;22;20102;-77
2022/05/03 06:43:04;;;;;;;5.00;4.50;;;;;;;22.27;33.07;101815.91;6337200;22;20247;-78
2022/05/03 06:45:30;;;;;;;8.82;4.75;;;;;;;22.68;32.32;101812.16;6331834;22;20026;-78
2022/05/03 06:47:55;;;;;;;4.95;3.90;;;;;;;23.12;29.79;101809.72;6335769;22;20410;-78
2022/05/03 06:50:21;;;;;;;6.53;4.20;;;;;;;23.77;28.98;101824.38;6337142;22;20002;-78
2022/05/03 06:52:47;;;;;;;7.93;3.97;;;;;;;24.34;28.50;101819.50;6330216;22;20063;-78
2022/05/03 06:55:12;;;;;;;5.32;4.10;;;;;;;24.64;27.54;101824.78;6309499;22;20241;-77
2022/05/03 06:57:37;;;;;;;5.70;4.25;;;;;;;24.87;27.23;101825.16;6330187;22;20053;-78
2022/05/03 07:00:05;;;;;;;6.72;4.00;;;;;;;25.16;26.26;101831.53;6337514;22;20427;-78
2022/05/03 07:02:33;;;;;;;5.80;4.03;;;;;;;25.53;25.30;101830.06;6309468;22;20018;-78
2022/05/03 07:08:20;;;;;;;4.13;3.72;;;;;;;26.56;22.32;101833.97;6337274;22;20021;-78
2022/05/03 07:10:45;;;;;;;5.07;3.60;;;;;;;26.82;22.63;101826.97;6330313;22;20006;-78
2022/05/03 07:13:14;;;;;;;6.03;3.63;;;;;;;27.04;22.67;101836.53;6337078;22;20649;-77
2022/05/03 07:15:39;;;;;;;4.57;3.35;;;;;;;27.13;21.41;101831.97;6330296;22;20018;-78
2022/05/03 07:23:32;;;;;;;7.53;3.70;;;;;;;28.35;20.60;101824.94;6337147;22;20072;-78
2022/05/03 07:25:58;;;;;;;5.63;3.30;;;;;;;28.28;19.58;101827.25;6309144;22;20038;-78
2022/05/03 07:28:23;;;;;;;6.93;3.65;;;;;;;28.13;19.88;101827.59;6302848;22;20261;-78
2022/05/03 07:30:49;;;;;;;12.88;4.95;;;;;;;28.61;20.03;101838.88;6336892;22;20003;-78
2022/05/03 07:33:14;;;;;;;6.20;3.75;;;;;;;28.66;19.55;101837.97;6330011;22;20082;-79
2022/05/03 07:35:39;;;;;;;5.70;3.33;;;;;;;29.23;18.06;101836.28;6309334;22;20007;-79
2022/05/03 07:38:05;;;;;;;5.13;3.17;;;;;;;30.07;17.47;101840.03;6336969;22;20055;-77
2022/05/03 07:40:30;;;;;;;4.45;2.90;;;;;;;30.66;16.80;101834.94;6329953;22;20241;-78
2022/05/03 07:42:56;;;;;;;4.88;3.08;;;;;;;31.03;16.19;101844.47;6309234;22;20014;-78
2022/05/03 07:45:21;;;;;;;3.73;3.00;;;;;;;31.29;15.77;101839.72;6302643;22;20428;-78
2022/05/03 07:47:47;;;;;;;4.50;3.30;;;;;;;31.72;15.53;101844.28;6336919;22;20002;-78
2022/05/03 07:50:13;;;;;;;5.35;3.38;;;;;;;31.65;15.98;101841.19;6337020;22;20003;-78
2022/05/03 07:52:38;;;;;;;6.03;3.28;;;;;;;32.07;15.53;101847.66;6329969;22;20030;-78
2022/05/03 07:55:07;;;;;;;4.10;3.53;;;;;;;32.20;15.45;101848.56;6309078;22;20340;-79
2022/05/03 08:00:53;;;;;;;5.95;3.60;;;;;;;33.13;14.72;101842.56;6336827;22;20050;-79
2022/05/03 08:03:20;;;;;;;6.17;4.03;;;;;;;33.19;14.73;101830.09;6330088;22;20011;-78
2022/05/03 08:05:45;;;;;;;7.10;4.20;;;;;;;33.65;14.45;101841.97;6336694;22;20233;-79
2022/05/03 08:08:11;;;;;;;6.63;4.10;;;;;;;34.10;15.00;101852.13;6334587;22;20522;-78
2022/05/03 08:10:36;;;;;;;7.00;4.30;;;;;;;34.14;14.97;101844.72;6332322;22;20052;-77
2022/05/03 08:13:02;;;;;;;5.40;4.17;;;;;;;34.42;14.02;101847.59;6336535;22;20316;-78
2022/05/03 08:15:27;;;;;;;6.47;4.45;;;;;;;34.61;14.15;101849.69;6302469;22;20011;-78
2022/05/03 08:17:53;;;;;;;4.40;3.97;;;;;;;34.60;14.40;101837.78;6336672;22;20003;-79
2022/05/03 08:20:18;;;;;;;6.05;4.30;;;;;;;35.02;14.20;101854.88;6330444;22;20273;-79
2022/05/03 08:22:44;;;;;;;5.63;4.53;;;;;;;34.98;13.45;101856.72;6336378;22;20010;-79
2022/05/03 08:25:10;;;;;;;8.75;5.00;;;;;;;34.78;14.41;101855.78;6336946;22;20010;-79
2022/05/03 08:27:40;;;;;;;6.80;4.93;;;;;;;34.83;14.64;101853.91;6302680;22;20101;-78
2022/05/03 08:30:07;;;;;;;6.82;4.97;;;;;;;35.12;13.55;101844.38;6309198;22;20446;-78
2022/05/03 08:32:33;;;;;;;7.10;4.80;;;;;;;35.22;13.83;101863.31;6329149;22;20011;-79
2022/05/03 08:34:58;;;;;;;6.35;4.80;;;;;;;35.09;14.07;101854.25;6336701;22;20044;-78
2022/05/03 08:42:52;;;;;;;8.63;5.32;;;;;;;34.70;14.18;101853.97;6336769;22;20072;-79
2022/05/03 08:45:21;;;;;;;6.57;5.43;;;;;;;34.70;14.84;101862.31;6330129;22;20006;-79
2022/05/03 08:47:49;;;;;;;6.28;4.88;;;;;;;34.37;14.65;101856.16;6336616;22;20006;-79
2022/05/03 08:50:19;;;;;;;5.68;5.07;;;;;;;34.17;15.58;101844.03;6329934;22;20086;-78
2022/05/03 08:53:02;;;;;;;6.63;5.57;;;;;;;34.09;16.20;101844.94;6336509;22;20518;-78
2022/05/03 08:55:27;;;;;;;6.78;5.43;;;;;;;33.42;15.44;101852.69;6336547;22;20033;-78
2022/05/03 08:57:53;;;;;;;8.82;6.03;;;;;;;34.11;15.38;101848.19;6318535;22;20328;-78
2022/05/03 09:00:19;;;;;;;8.68;5.43;;;;;;;34.60;16.00;101851.69;6336489;22;20087;-79
2022/05/03 09:03:03;;;;;;;8.40;5.45;;;;;;;35.50;14.62;101852.94;6302317;22;20467;-79
2022/05/03 09:05:29;;;;;;;7.40;6.05;;;;;;;35.09;15.19;101848.69;6336612;22;20078;-78
2022/05/03 09:07:56;;;;;;;10.23;6.03;;;;;;;34.63;15.86;101855.72;6302153;22;20039;-80
2022/05/03 09:10:26;;;;;;;11.50;6.82;;;;;;;34.13;15.94;101846.69;6336637;22;20003;-79
2022/05/03 09:12:55;;;;;;;8.23;6.20;;;;;;;34.50;16.33;101848.59;6308955;22;20093;-79
2022/05/03 09:15:32;;;;;;;8.52;6.22;;;;;;;35.50;16.39;101857.72;6329651;22;20038;-78
2022/05/03 09:17:58;;;;;;;6.28;5.35;;;;;;;36.07;14.66;101845.97;6336522;22;20033;-78
2022/05/03 09:26:26;;;;;;;12.02;5.88;;;;;;;34.42;16.89;101851.19;6329500;22;20025;-79
2022/05/03 09:29:16;;;;;;;10.52;6.07;;;;;;;33.48;17.14;101848.53;6336540;22;20003;-79
2022/05/03 09:31:48;;;;;;;32.45;7.15;;;;;;;32.74;18.47;101863.31;6329030;22;20073;-79
2022/05/03 09:34:17;;;;;;;6.40;5.72;;;;;;;32.65;18.87;101854.25;6336215;22;19999;-79
2022/05/03 09:36:45;;;;;;;9.32;6.40;;;;;;;32.73;18.21;101847.84;6308764;22;20038;-78
2022/05/03 09:39:21;;;;;;;23.90;7.85;;;;;;;32.76;18.47;101851.88;6329527;22;20420;-79
2022/05/03 09:42:18;;;;;;;19.50;6.95;;;;;;;32.11;19.26;101840.31;6336325;22;20034;-78
2022/05/03 09:44:51;;;;;;;8.02;6.30;;;;;;;32.29;18.79;101846.56;6329377;22;20015;-79
2022/05/03 09:47:18;;;;;;;7.88;6.50;;;;;;;33.36;17.72;101850.50;6336312;22;20006;-79
2022/05/03 09:49:43;;;;;;;8.25;6.35;;;;;;;34.43;16.80;101843.66;6302143;22;20021;-79
2022/05/03 09:52:27;;;;;;;7.43;6.43;;;;;;;34.95;17.45;101857.44;6336162;22;20003;-78
2022/05/03 09:54:53;;;;;;;10.80;7.50;;;;;;;33.66;17.47;101837.22;6333682;22;20493;-79
2022/05/03 09:57:23;;;;;;;9.25;6.40;;;;;;;31.23;19.92;101832.75;6332349;22;20003;-79
2022/05/03 09:59:53;;;;;;;12.48;6.75;;;;;;;29.96;20.89;101841.44;6335946;22;20077;-78
2022/05/03 10:02:20;;;;;;;6.75;5.65;;;;;;;29.24;21.80;101837.91;6329181;22;20063;-79
2022/05/03 10:04:47;;;;;;;10.65;6.20;;;;;;;29.05;22.14;101837.28;6336160;22;20503;-79
2022/05/03 10:07:13;;;;;;;7.88;6.90;;;;;;;28.00;23.31;101837.47;6329131;22;20076;-78
2022/05/03 10:09:40;;;;;;;12.13;7.18;;;;;;;27.62;25.01;101836.88;6336019;22;19995;-78
2022/05/03 10:12:08;;;;;;;13.15;6.65;;;;;;;28.01;24.16;101836.34;6336238;22;20003;-79
2022/05/03 10:14:34;;;;;;;7.18;5.45;;;;;;;29.01;23.24;101832.75;6301768;22;20014;-79
2022/05/03 10:26:05;;;;;;;6.95;5.75;;;;;;;28.64;22.63;101829.22;6335806;22;20458;-79
2022/05/03 10:29:10;;;;;;;6.25;5.40;;;;;;;28.01;24.48;101830.84;6336182;22;20518;-78
2022/05/03 10:32:04;;;;;;;9.02;6.35;;;;;;;27.61;25.05;101817.91;6300752;22;20030;-79
2022/05/03 10:34:53;;;;;;;10.00;5.90;;;;;;;28.23;24.41;101819.09;6335542;22;20002;-78
2022/05/03 10:37:33;;;;;;;6.80;5.47;;;;;;;29.19;23.02;101810.47;6328877;22;20671;-78
2022/05/03 10:40:07;;;;;;;7.55;6.07;;;;;;;28.20;23.56;101805.97;6308002;22;20007;-79
2022/05/03 10:42:32;;;;;;;6.57;5.82;;;;;;;26.27;26.63;101812.16;6328867;22;20133;-78
2022/05/03 10:45:06;;;;;;;8.13;5.75;;;;;;;24.93;28.41;101813.88;6335637;22;20072;-79
2022/05/03 10:47:54;;;;;;;8.23;5.97;;;;;;;24.67;29.37;101813.28;6308071;22;20309;-78
2022/05/03 10:50:36;;;;;;;10.63;6.68;;;;;;;25.06;29.14;101809.69;6301452;22;20010;-79
2022/05/03 10:53:07;;;;;;;9.57;7.20;;;;;;;25.26;28.18;101811.44;6335421;22;20097;-78
2022/05/03 10:55:38;;;;;;;9.32;6.75;;;;;;;25.70;28.09;101803.03;6328957;22;20335;-79
2022/05/03 10:58:35;;;;;;;12.80;6.63;;;;;;;27.40;25.78;101799.06;6337197;22;20065;-77
2022/05/03 11:01:04;;;;;;;8.85;6.80;;;;;;;27.52;25.58;101800.53;6303066;22;20010;-78
2022/05/03 11:03:30;;;;;;;8.77;6.63;;;;;;;26.53;27.04;101807.13;6309408;22;20439;-79
2022/05/03 11:06:17;;;;;;;13.20;7.28;;;;;;;26.86;26.89;101805.22;6332758;22;20003;-79
2022/05/03 11:11:35;;;;;;;11.82;7.68;;;;;;;26.92;27.70;101786.75;6337505;22;20019;-78
2022/05/03 11:14:01;;;;;;;7.80;7.00;;;;;;;27.62;26.38;101789.34;6302977;22;20014;-78
2022/05/03 11:16:27;;;;;;;8.55;7.32;;;;;;;27.26;25.49;101786.44;6337154;22;20010;-79
2022/05/03 11:18:54;;;;;;;9.93;7.78;;;;;;;26.61;26.19;101792.75;6302726;22;20010;-79
2022/05/03 11:21:19;;;;;;;11.35;7.30;;;;;;;26.20;29.51;101785.09;6337058;22;20002;-78
2022/05/03 11:23:49;;;;;;;10.80;7.05;;;;;;;26.84;27.26;101780.81;6332574;22;20010;-78
2022/05/03 11:26:18;;;;;;;6.93;5.32;;;;;;;28.12;25.66;101765.44;6335708;22;20007;-78
2022/05/03 11:28:46;;;;;;;10.38;7.30;;;;;;;28.42;25.39;101772.22;6336934;22;20007;-78
2022/05/03 11:31:12;;;;;;;10.15;7.10;;;;;;;27.21;26.16;101778.31;6329987;22;20015;-78
2022/05/03 11:33:58;;;;;;;9.43;6.90;;;;;;;25.83;28.94;101779.59;6336895;22;20309;-78
2022/05/03 11:36:25;;;;;;;7.68;6.28;;;;;;;24.55;30.72;101773.69;6330089;22;20071;-78
2022/05/03 11:38:51;;;;;;;7.85;6.30;;;;;;;23.92;31.58;101770.78;6337002;22;20007;-79
2022/05/03 11:41:25;;;;;;;8.00;6.20;;;;;;;23.79;30.93;101759.38;6336112;22;20432;-79
2022/05/03 11:43:51;;;;;;;8.68;6.05;;;;;;;24.01;30.27;101766.38;6305707;22;20007;-79
2022/05/03 11:46:18;;;;;;;7.57;6.28;;;;;;;23.84;33.16;101758.53;6309283;22;20526;-78
2022/05/03 11:57:35;;;;;;;6.78;5.95;;;;;;;25.79;30.53;101746.47;6336740;22;20053;-78
2022/05/03 12:00:05;;;;;;;10.70;7.20;;;;;;;27.01;28.11;101741.06;6302556;22;20101;-79
2022/05/03 12:02:44;;;;;;;8.27;6.30;;;;;;;27.60;27.54;101750.34;6336781;22;20084;-79
2022/05/03 12:05:16;;;;;;;7.32;6.53;;;;;;;27.36;27.00;101742.28;6332701;22;20056;-79
2022/05/03 12:07:41;;;;;;;10.05;7.18;;;;;;;27.02;26.94;101745.41;6335056;22;20007;-79
2022/05/03 12:10:24;;;;;;;7.73;6.67;;;;;;;26.91;28.26;101738.47;6336899;22;20030;-79
2022/05/03 12:13:03;;;;;;;6.50;4.85;;;;;;;25.92;28.86;101737.50;6329789;22;20043;-78
2022/05/03 12:15:30;;;;;;;6.32;4.72;;;;;;;24.82;30.32;101730.25;6336884;22;20079;-78
2022/05/03 12:17:57;;;;;;;6.82;5.00;;;;;;;24.21;31.62;101727.97;6329924;22;20021;-78
2022/05/03 12:20:23;;;;;;;6.50;5.28;;;;;;;23.92;31.84;101727.88;6336805;22;20323;-78
2022/05/03 12:23:15;;;;;;;7.78;5.72;;;;;;;23.83;32.70;101736.94;6333828;22;20010;-79
2022/05/03 12:25:42;;;;;;;6.63;5.93;;;;;;;23.69;32.67;101734.00;6336785;22;20085;-78
2022/05/03 12:28:07;;;;;;;8.15;6.47;;;;;;;23.72;33.10;101726.09;6336731;22;20507;-78
2022/05/03 12:30:33;;;;;;;9.85;6.63;;;;;;;23.98;33.14;101720.44;6302666;22;20093;-79
2022/05/03 12:33:07;;;;;;;11.38;7.50;;;;;;;23.83;33.77;101723.28;6336479;22;20003;-78
2022/05/03 12:35:36;;;;;;;8.60;7.68;;;;;;;23.99;33.72;101717.44;6329893;22;20097;-79
2022/05/03 12:38:14;;;;;;;9.57;8.00;;;;;;;23.86;33.60;101709.06;6336661;22;19998;-78
2022/05/03 12:40:48;;;;;;;9.93;8.25;;;;;;;23.89;34.74;101700.31;6304187;22;20026;-78
2022/05/03 12:46:36;;;;;;;10.50;7.32;;;;;;;24.86;32.23;101714.06;6331664;22;20574;-78
2022/05/03 12:49:04;;;;;;;9.77;7.38;;;;;;;25.36;31.89;101706.44;6335373;22;20003;-78
2022/05/03 12:51:30;;;;;;;10.32;7.32;;;;;;;25.73;30.27;101702.97;6336652;22;20339;-78
2022/05/03 12:53:55;;;;;;;12.63;7.38;;;;;;;25.92;30.56;101701.06;6329629;22;20007;-78
2022/05/03 12:59:05;;;;;;;10.45;8.00;;;;;;;26.71;28.99;101693.78;6329713;22;20342;-79
2022/05/03 13:01:30;;;;;;;9.60;6.13;;;;;;;26.59;28.88;101693.44;6308931;22;20064;-77